createdAt,value
2022-12-24T00:01:05.793Z,100318.06
2022-12-24T00:03:33.933Z,100314.19
2022-12-24T00:06:07.989Z,100310.34
2022-12-24T00:08:35.419Z,100321.38
2022-12-24T00:11:02.405Z,100333.59
2022-12-24T00:13:29.553Z,100332.09
2022-12-24T00:15:56.470Z,100334.75
2022-12-24T00:18:23.321Z,100328.44
2022-12-24T00:20:50.445Z,100320.59
2022-12-24T00:23:18.667Z,100319.00
2022-12-24T00:25:47.477Z,100331.09
2022-12-24T00:28:16.435Z,100340.00
2022-12-24T00:30:45.014Z,100342.28
2022-12-24T00:33:12.761Z,100339.19
2022-12-24T00:35:40.802Z,100346.81
2022-12-24T00:38:08.491Z,100351.63
2022-12-24T00:40:35.631Z,100362.56
2022-12-24T00:43:02.650Z,100363.25
2022-12-24T00:45:29.901Z,100356.28
2022-12-24T00:47:56.960Z,100355.53
2022-12-24T00:50:23.949Z,100351.28
2022-12-24T00:52:50.878Z,100359.03
2022-12-24T00:55:17.883Z,100354.72
2022-12-24T00:57:44.761Z,100358.69
2022-12-24T01:00:12.099Z,100350.81
2022-12-24T01:02:39.075Z,100365.44
2022-12-24T01:05:12.579Z,100362.34
2022-12-24T01:07:42.593Z,100360.38
2022-12-24T01:10:11.994Z,100363.94
2022-12-24T01:12:39.424Z,100362.81
2022-12-24T01:15:07.362Z,100367.03
2022-12-24T01:17:35.776Z,100368.59
2022-12-24T01:20:04.117Z,100376.38
2022-12-24T01:22:31.086Z,100375.59
2022-12-24T01:24:57.968Z,100376.06
2022-12-24T01:27:24.955Z,100382.66
2022-12-24T01:29:52.025Z,100379.94
2022-12-24T01:32:18.943Z,100383.47
2022-12-24T01:34:45.999Z,100385.06
2022-12-24T01:37:13.006Z,100389.75
2022-12-24T01:39:39.909Z,100397.63
2022-12-24T01:42:37.514Z,100402.41
2022-12-24T01:45:43.386Z,100399.78
2022-12-24T01:48:44.449Z,100402.41
2022-12-24T01:51:49.860Z,100408.69
2022-12-24T01:54:31.820Z,100414.84
2022-12-24T01:57:05.011Z,100418.28
2022-12-24T01:59:33.625Z,100420.22
2022-12-24T02:02:02.051Z,100428.81
2022-12-24T02:04:47.409Z,100437.34
2022-12-24T02:07:14.408Z,100440.09
2022-12-24T02:09:41.442Z,100442.81
2022-12-24T02:12:09.299Z,100440.22
2022-12-24T02:14:37.410Z,100428.13
2022-12-24T02:17:24.137Z,100422.28
2022-12-24T02:20:13.083Z,100426.16
2022-12-24T02:22:49.517Z,100440.66
2022-12-24T02:25:53.901Z,100447.06
2022-12-24T02:28:36.625Z,100453.34
2022-12-24T02:31:14.458Z,100455.72
2022-12-24T02:33:47.201Z,100462.44
2022-12-24T02:36:36.816Z,100458.56
2022-12-24T02:39:14.330Z,100466.00
2022-12-24T02:42:05.900Z,100468.41
2022-12-24T02:44:55.553Z,100467.34
2022-12-24T02:47:26.736Z,100476.06
2022-12-24T02:49:53.909Z,100472.63
2022-12-24T02:52:33.659Z,100477.41
2022-12-24T02:55:14.415Z,100474.44
2022-12-24T02:57:56.423Z,100475.44
2022-12-24T03:00:24.943Z,100478.03
2022-12-24T03:03:14.810Z,100481.81
2022-12-24T03:05:51.919Z,100491.50
2022-12-24T03:08:38.834Z,100479.69
2022-12-24T03:11:11.065Z,100496.03
2022-12-24T03:13:38.710Z,100503.44
2022-12-24T03:16:12.807Z,100506.44
2022-12-24T03:18:43.210Z,100498.91
2022-12-24T03:21:26.127Z,100508.09
2022-12-24T03:23:53.361Z,100510.72
2022-12-24T03:26:20.724Z,100522.56
2022-12-24T03:28:48.776Z,100528.97
2022-12-24T03:31:16.860Z,100528.38
2022-12-24T03:33:43.894Z,100529.63
2022-12-24T03:36:11.716Z,100538.31
2022-12-24T03:38:38.633Z,100533.75
2022-12-24T03:41:06.266Z,100545.63
2022-12-24T03:43:33.736Z,100548.91
2022-12-24T03:46:07.419Z,100553.47
2022-12-24T03:48:35.615Z,100554.38
2022-12-24T03:51:03.816Z,100551.03
2022-12-24T03:53:31.123Z,100553.78
2022-12-24T03:55:57.939Z,100555.25
2022-12-24T03:58:24.922Z,100549.00
2022-12-24T04:00:54.135Z,100553.81
2022-12-24T04:03:21.341Z,100559.75
2022-12-24T04:05:48.305Z,100560.19
2022-12-24T04:08:15.430Z,100566.59
2022-12-24T04:10:42.837Z,100564.66
2022-12-24T04:13:09.643Z,100571.72
2022-12-24T04:15:36.508Z,100575.75
2022-12-24T04:18:03.486Z,100578.50
2022-12-24T04:20:30.359Z,100573.91
2022-12-24T04:22:57.187Z,100578.56
2022-12-24T04:25:24.018Z,100588.16
2022-12-24T04:27:50.845Z,100592.28
2022-12-24T04:30:17.715Z,100597.97
2022-12-24T04:32:44.655Z,100591.88
2022-12-24T04:35:11.567Z,100591.63
2022-12-24T04:37:38.468Z,100593.25
2022-12-24T04:40:06.209Z,100597.94
2022-12-24T04:42:33.210Z,100600.22
2022-12-24T04:45:00.213Z,100597.03
2022-12-24T04:47:27.087Z,100604.47
2022-12-24T04:49:53.918Z,100597.38
2022-12-24T04:52:21.207Z,100598.88
2022-12-24T04:54:48.130Z,100609.03
2022-12-24T04:57:14.967Z,100609.84
2022-12-24T04:59:42.248Z,100607.56
2022-12-24T05:02:09.421Z,100605.59
2022-12-24T05:04:36.660Z,100612.25
2022-12-24T05:07:03.985Z,100618.41
2022-12-24T05:09:30.918Z,100610.09
2022-12-24T05:11:57.828Z,100616.72
2022-12-24T05:14:24.709Z,100620.16
2022-12-24T05:16:51.729Z,100621.28
2022-12-24T05:19:18.590Z,100615.81
2022-12-24T05:22:05.491Z,100618.56
2022-12-24T05:24:51.121Z,100620.53
2022-12-24T05:27:18.131Z,100614.56
2022-12-24T05:29:44.936Z,100617.31
2022-12-24T05:32:12.304Z,100624.84
2022-12-24T05:34:40.163Z,100621.78
2022-12-24T05:37:06.981Z,100634.00
2022-12-24T05:39:33.910Z,100639.94
2022-12-24T05:42:01.020Z,100644.84
2022-12-24T05:44:27.950Z,100647.59
2022-12-24T05:46:54.807Z,100651.13
2022-12-24T05:49:21.750Z,100645.97
2022-12-24T05:51:48.600Z,100647.59
2022-12-24T05:54:15.908Z,100654.09
2022-12-24T05:56:43.001Z,100648.16
2022-12-24T05:59:09.854Z,100648.03
2022-12-24T06:01:37.106Z,100649.91
2022-12-24T06:04:04.595Z,100644.53
2022-12-24T06:06:31.640Z,100648.66
2022-12-24T06:08:59.100Z,100657.22
2022-12-24T06:11:27.769Z,100658.59
2022-12-24T06:13:54.869Z,100661.78
2022-12-24T06:16:23.406Z,100670.47
2022-12-24T06:18:50.439Z,100676.75
2022-12-24T06:21:18.394Z,100683.22
2022-12-24T06:23:46.998Z,100688.50
2022-12-24T06:26:18.163Z,100691.91
2022-12-24T06:28:46.014Z,100687.56
2022-12-24T06:31:15.517Z,100695.09
2022-12-24T06:33:43.296Z,100698.84
2022-12-24T06:36:17.563Z,100699.19
2022-12-24T06:38:46.995Z,100698.75
2022-12-24T06:41:14.662Z,100704.22
2022-12-24T06:43:50.478Z,100699.41
2022-12-24T06:46:18.791Z,100715.25
2022-12-24T06:48:46.969Z,100710.91
2022-12-24T06:51:16.716Z,100717.97
2022-12-24T06:53:43.594Z,100714.56
2022-12-24T06:56:13.384Z,100717.00
2022-12-24T06:58:41.580Z,100723.19
2022-12-24T07:01:12.023Z,100712.91
2022-12-24T07:03:39.656Z,100717.00
2022-12-24T07:06:07.203Z,100725.44
2022-12-24T07:08:36.267Z,100720.00
2022-12-24T07:11:04.031Z,100728.78
2022-12-24T07:13:33.265Z,100736.88
2022-12-24T07:16:01.963Z,100739.94
2022-12-24T07:18:29.849Z,100735.25
2022-12-24T07:20:56.959Z,100736.75
2022-12-24T07:23:23.912Z,100734.88
2022-12-24T07:25:51.015Z,100738.47
2022-12-24T07:28:21.105Z,100744.63
2022-12-24T07:30:52.600Z,100747.44
2022-12-24T07:33:19.568Z,100741.81
2022-12-24T07:35:52.188Z,100748.63
2022-12-24T07:38:22.887Z,100754.75
2022-12-24T07:40:49.690Z,100760.22
2022-12-24T07:43:17.166Z,100769.09
2022-12-24T07:45:44.408Z,100770.25
2022-12-24T07:48:11.242Z,100770.25
2022-12-24T07:50:37.983Z,100782.34
2022-12-24T07:53:05.301Z,100780.41
2022-12-24T07:55:32.090Z,100780.88
2022-12-24T07:57:59.403Z,100776.66
2022-12-24T08:00:26.524Z,100793.09
2022-12-24T08:02:53.785Z,100792.31
2022-12-24T08:05:20.742Z,100792.31
2022-12-24T08:07:47.922Z,100796.31
2022-12-24T08:10:15.769Z,100803.00
2022-12-24T08:12:42.759Z,100809.69
2022-12-24T08:15:10.309Z,100815.44
2022-12-24T08:17:37.742Z,100821.53
2022-12-24T08:20:05.715Z,100837.91
2022-12-24T08:22:32.894Z,100831.75
2022-12-24T08:24:59.761Z,100822.88
2022-12-24T08:27:26.526Z,100843.31
2022-12-24T08:29:53.681Z,100851.66
2022-12-24T08:32:20.514Z,100856.16
2022-12-24T08:34:47.390Z,100856.75
2022-12-24T08:37:14.711Z,100857.81
2022-12-24T08:39:41.541Z,100859.72
2022-12-24T08:42:08.623Z,100861.88
2022-12-24T08:44:35.750Z,100868.09
2022-12-24T08:47:02.548Z,100881.63
2022-12-24T08:49:29.414Z,100883.81
2022-12-24T08:51:56.642Z,100885.69
2022-12-24T08:54:25.232Z,100885.94
2022-12-24T08:56:52.586Z,100885.50
2022-12-24T08:59:19.525Z,100884.50
2022-12-24T09:01:47.235Z,100898.38
2022-12-24T09:04:14.305Z,100899.41
2022-12-24T09:06:41.519Z,100906.06
2022-12-24T09:09:09.523Z,100912.72
2022-12-24T09:11:36.443Z,100913.88
2022-12-24T09:14:03.820Z,100917.66
2022-12-24T09:16:30.846Z,100915.53
2022-12-24T09:18:58.516Z,100919.16
2022-12-24T09:21:25.653Z,100923.09
2022-12-24T09:23:52.630Z,100914.63
2022-12-24T09:26:27.823Z,100915.91
2022-12-24T09:28:54.890Z,100919.09
2022-12-24T09:31:22.084Z,100919.66
2022-12-24T09:33:50.596Z,100934.44
2022-12-24T09:36:18.778Z,100936.63
2022-12-24T09:38:45.954Z,100938.91
2022-12-24T09:41:28.420Z,100941.91
2022-12-24T09:44:06.460Z,100948.75
2022-12-24T09:46:40.161Z,100949.00
2022-12-24T09:49:14.102Z,100945.31
2022-12-24T09:51:46.899Z,100948.06
2022-12-24T09:54:26.383Z,100947.50
2022-12-24T09:56:55.405Z,100960.91
2022-12-24T09:59:33.677Z,100968.94
2022-12-24T10:02:01.261Z,100958.25
2022-12-24T10:04:31.330Z,100969.81
2022-12-24T10:07:23.182Z,100974.63
2022-12-24T10:10:14.985Z,100977.75
2022-12-24T10:12:58.393Z,100974.06
2022-12-24T10:15:34.042Z,100979.22
2022-12-24T10:18:53.956Z,100966.38
2022-12-24T10:21:34.088Z,100975.41
2022-12-24T10:24:10.221Z,100968.97
2022-12-24T10:26:51.159Z,100971.25
2022-12-24T10:29:23.927Z,100970.56
2022-12-24T10:32:11.268Z,100978.81
2022-12-24T10:34:50.359Z,100981.00
2022-12-24T10:37:23.559Z,100977.53
2022-12-24T10:39:51.653Z,100981.31
2022-12-24T10:42:21.601Z,100984.00
2022-12-24T10:44:55.128Z,100981.94
2022-12-24T10:47:22.780Z,100987.44
2022-12-24T10:50:03.270Z,100995.00
2022-12-24T10:52:35.605Z,100986.38
2022-12-24T10:55:21.638Z,100980.56
2022-12-24T10:58:19.670Z,100978.00
2022-12-24T11:00:52.462Z,100994.16
2022-12-24T11:03:19.481Z,100987.41
2022-12-24T11:05:47.221Z,101002.31
2022-12-24T11:08:14.292Z,101006.56
2022-12-24T11:10:53.424Z,101003.34
2022-12-24T11:13:39.031Z,100996.00
2022-12-24T11:16:11.758Z,100997.81
2022-12-24T11:18:51.278Z,100991.28
2022-12-24T11:21:22.130Z,100990.22
2022-12-24T11:23:56.191Z,100996.31
2022-12-24T11:26:28.892Z,100996.38
2022-12-24T11:29:17.040Z,101010.94
2022-12-24T11:31:45.809Z,101006.84
2022-12-24T11:34:25.111Z,101000.91
2022-12-24T11:36:54.179Z,101013.25
2022-12-24T11:39:23.823Z,101009.34
2022-12-24T11:41:51.405Z,101006.25
2022-12-24T11:44:26.786Z,101025.63
2022-12-24T11:46:58.516Z,101023.00
2022-12-24T11:49:32.385Z,101033.19
2022-12-24T11:52:12.300Z,101022.19
2022-12-24T11:54:56.543Z,101037.34
2022-12-24T11:57:29.606Z,101031.47
2022-12-24T11:59:56.701Z,101033.63
2022-12-24T12:02:29.106Z,101031.34
2022-12-24T12:05:00.813Z,101039.47
2022-12-24T12:07:34.163Z,101042.31
2022-12-24T12:10:23.476Z,101049.13
2022-12-24T12:13:16.536Z,101058.44
2022-12-24T12:16:03.931Z,101060.03
2022-12-24T12:18:40.797Z,101058.31
2022-12-24T12:21:21.208Z,101070.84
2022-12-24T12:23:56.705Z,101066.47
2022-12-24T12:26:27.304Z,101068.44
2022-12-24T12:28:59.443Z,101073.81
2022-12-24T12:31:30.416Z,101077.47
2022-12-24T12:34:04.428Z,101078.91
2022-12-24T12:36:39.089Z,101066.97
2022-12-24T12:39:06.502Z,101068.47
2022-12-24T12:42:06.639Z,101070.44
2022-12-24T12:44:36.657Z,101087.28
2022-12-24T12:47:31.537Z,101083.63
2022-12-24T12:50:13.277Z,101082.13
2022-12-24T12:53:09.014Z,101082.47
2022-12-24T12:55:53.789Z,101089.69
2022-12-24T12:58:26.108Z,101095.19
2022-12-24T13:00:59.341Z,101088.78
2022-12-24T13:03:55.240Z,101090.16
2022-12-24T13:07:05.523Z,101088.91
2022-12-24T13:09:52.383Z,101095.31
2022-12-24T13:12:34.435Z,101094.16
2022-12-24T13:15:35.930Z,101098.97
2022-12-24T13:18:37.008Z,101110.34
2022-12-24T13:21:04.925Z,101111.03
2022-12-24T13:23:33.037Z,101114.34
2022-12-24T13:26:10.743Z,101113.09
2022-12-24T13:28:38.655Z,101125.91
2022-12-24T13:31:19.996Z,101117.91
2022-12-24T13:33:49.627Z,101118.91
2022-12-24T13:36:18.956Z,101118.94
2022-12-24T13:38:57.448Z,101119.38
2022-12-24T13:41:40.593Z,101125.88
2022-12-24T13:44:13.392Z,101135.16
2022-12-24T13:47:06.662Z,101129.66
2022-12-24T13:49:40.763Z,101132.28
2022-12-24T13:52:20.391Z,101141.34
2022-12-24T13:54:50.749Z,101147.84
2022-12-24T13:57:37.254Z,101137.41
2022-12-24T14:00:13.628Z,101152.38
2022-12-24T14:02:47.991Z,101153.75
2022-12-24T14:05:27.630Z,101150.41
2022-12-24T14:07:56.892Z,101164.09
2022-12-24T14:10:26.887Z,101173.38
2022-12-24T14:12:54.820Z,101172.50
2022-12-24T14:16:06.777Z,101173.88
2022-12-24T14:18:43.041Z,101181.72
2022-12-24T14:21:37.517Z,101184.50
2022-12-24T14:24:08.064Z,101184.53
2022-12-24T14:26:44.864Z,101185.56
2022-12-24T14:29:47.242Z,101185.09
2022-12-24T14:32:16.938Z,101195.09
2022-12-24T14:34:44.280Z,101194.16
2022-12-24T14:37:13.990Z,101191.91
2022-12-24T14:39:48.189Z,101198.72
2022-12-24T14:42:46.124Z,101209.41
2022-12-24T14:45:37.743Z,101212.31
2022-12-24T14:48:19.559Z,101220.72
2022-12-24T14:50:52.278Z,101218.50
2022-12-24T14:53:54.446Z,101232.22
2022-12-24T14:56:22.673Z,101234.69
2022-12-24T14:58:50.076Z,101239.84
2022-12-24T15:01:28.024Z,101246.94
2022-12-24T15:04:11.730Z,101253.72
2022-12-24T15:06:41.990Z,101259.69
2022-12-24T15:09:25.218Z,101267.59
2022-12-24T15:11:55.837Z,101264.03
2022-12-24T15:14:25.278Z,101269.69
2022-12-24T15:17:03.567Z,101269.34
2022-12-24T15:19:42.553Z,101273.53
2022-12-24T15:22:26.414Z,101272.09
2022-12-24T15:24:53.396Z,101270.00
2022-12-24T15:27:23.727Z,101270.63
2022-12-24T15:29:53.740Z,101272.56
2022-12-24T15:32:21.431Z,101271.09
2022-12-24T15:34:50.816Z,101282.88
2022-12-24T15:37:30.237Z,101277.22
2022-12-24T15:40:03.951Z,101280.09
2022-12-24T15:42:31.253Z,101283.47
2022-12-24T15:45:04.261Z,101280.88
2022-12-24T15:47:38.708Z,101291.34
2022-12-24T15:50:17.317Z,101300.19
2022-12-24T15:52:46.000Z,101298.25
2022-12-24T15:55:33.859Z,101310.16
2022-12-24T15:58:02.469Z,101309.19
2022-12-24T16:00:32.419Z,101310.31
2022-12-24T16:03:20.900Z,101314.47
2022-12-24T16:06:00.384Z,101317.59
2022-12-24T16:08:35.273Z,101313.22
2022-12-24T16:11:26.313Z,101314.16
2022-12-24T16:14:17.741Z,101322.38
2022-12-24T16:16:48.865Z,101331.72
2022-12-24T16:19:18.479Z,101326.53
2022-12-24T16:21:46.716Z,101330.56
2022-12-24T16:24:24.514Z,101328.53
2022-12-24T16:26:52.110Z,101329.94
2022-12-24T16:29:22.713Z,101326.72
2022-12-24T16:31:55.810Z,101329.47
2022-12-24T16:34:26.129Z,101328.66
2022-12-24T16:36:53.718Z,101332.84
2022-12-24T16:39:35.018Z,101339.75
2022-12-24T16:42:22.646Z,101332.16
2022-12-24T16:44:53.437Z,101335.22
2022-12-24T16:47:33.632Z,101324.84
2022-12-24T16:50:07.450Z,101324.53
2022-12-24T16:52:34.516Z,101336.28
2022-12-24T16:55:01.547Z,101336.41
2022-12-24T16:57:29.110Z,101344.94
2022-12-24T16:59:56.112Z,101339.28
2022-12-24T17:02:24.438Z,101347.47
2022-12-24T17:04:51.975Z,101351.84
2022-12-24T17:07:20.464Z,101345.38
2022-12-24T17:09:47.453Z,101353.28
2022-12-24T17:12:15.061Z,101346.19
2022-12-24T17:14:42.724Z,101346.19
2022-12-24T17:17:22.941Z,101349.84
2022-12-24T17:19:49.980Z,101347.72
2022-12-24T17:22:17.723Z,101355.47
2022-12-24T17:24:44.967Z,101348.34
2022-12-24T17:27:12.978Z,101347.72
2022-12-24T17:29:40.024Z,101349.50
2022-12-24T17:32:07.359Z,101350.31
2022-12-24T17:34:34.494Z,101344.31
2022-12-24T17:37:01.413Z,101350.44
2022-12-24T17:39:28.674Z,101349.31
2022-12-24T17:41:55.533Z,101349.59
2022-12-24T17:44:22.425Z,101352.19
2022-12-24T17:46:49.999Z,101345.72
2022-12-24T17:49:17.311Z,101344.09
2022-12-24T17:51:46.024Z,101350.19
2022-12-24T17:54:13.879Z,101346.28
2022-12-24T17:56:41.251Z,101342.75
2022-12-24T17:59:08.131Z,101349.66
2022-12-24T18:01:35.167Z,101350.75
2022-12-24T18:04:03.506Z,101347.88
2022-12-24T18:06:30.732Z,101333.53
2022-12-24T18:08:58.157Z,101339.63
2022-12-24T18:11:32.736Z,101340.75
2022-12-24T18:14:01.543Z,101345.63
2022-12-24T18:16:31.399Z,101346.59
2022-12-24T18:18:59.578Z,101339.19
2022-12-24T18:21:30.315Z,101335.41
2022-12-24T18:23:58.194Z,101346.53
2022-12-24T18:26:30.165Z,101350.06
2022-12-24T18:29:00.226Z,101347.16
2022-12-24T18:31:29.604Z,101342.31
2022-12-24T18:33:57.187Z,101342.31
2022-12-24T18:36:24.706Z,101338.91
2022-12-24T18:38:51.977Z,101343.22
2022-12-24T18:41:23.308Z,101328.94
2022-12-24T18:43:50.646Z,101333.78
2022-12-24T18:46:20.454Z,101336.22
2022-12-24T18:48:48.375Z,101335.41
2022-12-24T18:51:17.213Z,101338.94
2022-12-24T18:53:44.530Z,101351.81
2022-12-24T18:56:14.845Z,101361.69
2022-12-24T18:58:43.210Z,101358.97
2022-12-24T19:01:22.443Z,101361.38
2022-12-24T19:03:50.161Z,101362.50
2022-12-24T19:06:18.376Z,101352.19
2022-12-24T19:08:57.322Z,101352.19
2022-12-24T19:11:26.942Z,101358.00
2022-12-24T19:13:54.066Z,101358.19
2022-12-24T19:16:21.757Z,101357.91
2022-12-24T19:18:49.217Z,101358.34
2022-12-24T19:21:18.209Z,101359.44
2022-12-24T19:23:46.153Z,101354.78
2022-12-24T19:26:14.715Z,101368.84
2022-12-24T19:28:42.289Z,101366.34
2022-12-24T19:31:15.025Z,101363.31
2022-12-24T19:33:45.965Z,101375.81
2022-12-24T19:36:16.262Z,101374.72
2022-12-24T19:38:43.677Z,101373.44
2022-12-24T19:41:13.252Z,101384.53
2022-12-24T19:43:42.590Z,101387.91
2022-12-24T19:46:14.737Z,101393.47
2022-12-24T19:48:43.373Z,101392.28
2022-12-24T19:51:12.365Z,101395.81
2022-12-24T19:53:40.086Z,101388.53
2022-12-24T19:56:08.743Z,101396.66
2022-12-24T19:58:36.503Z,101401.94
2022-12-24T20:01:15.612Z,101400.31
2022-12-24T20:03:45.030Z,101406.41
2022-12-24T20:06:14.267Z,101403.34
2022-12-24T20:08:41.678Z,101406.34
2022-12-24T20:11:14.821Z,101397.66
2022-12-24T20:13:42.735Z,101411.34
2022-12-24T20:16:13.247Z,101410.03
2022-12-24T20:18:40.115Z,101410.34
2022-12-24T20:21:10.036Z,101407.31
2022-12-24T20:23:43.250Z,101415.81
2022-12-24T20:26:13.426Z,101412.63
2022-12-24T20:28:41.145Z,101404.94
2022-12-24T20:31:35.911Z,101413.25
2022-12-24T20:34:05.295Z,101423.38
2022-12-24T20:36:32.284Z,101417.50
2022-12-24T20:38:59.844Z,101413.22
2022-12-24T20:41:29.085Z,101410.53
2022-12-24T20:43:58.909Z,101407.63
2022-12-24T20:46:26.956Z,101407.75
2022-12-24T20:48:56.178Z,101403.19
2022-12-24T20:51:25.861Z,101399.16
2022-12-24T20:53:54.429Z,101397.53
2022-12-24T20:56:22.113Z,101405.13
2022-12-24T20:58:49.282Z,101394.84
2022-12-24T21:01:25.079Z,101389.75
2022-12-24T21:03:53.880Z,101392.06
2022-12-24T21:06:21.701Z,101399.31
2022-12-24T21:08:50.292Z,101396.78
2022-12-24T21:11:36.824Z,101389.22
2022-12-24T21:14:03.939Z,101392.78
2022-12-24T21:16:32.430Z,101398.59
2022-12-24T21:18:59.502Z,101392.59
2022-12-24T21:21:26.459Z,101393.22
2022-12-24T21:23:54.163Z,101392.72
2022-12-24T21:26:21.321Z,101383.22
2022-12-24T21:28:49.166Z,101373.53
2022-12-24T21:31:17.126Z,101359.38
2022-12-24T21:33:44.159Z,101356.66
2022-12-24T21:36:12.568Z,101361.41
2022-12-24T21:38:39.736Z,101348.97
2022-12-24T21:41:12.783Z,101352.34
2022-12-24T21:43:39.976Z,101348.66
2022-12-24T21:46:12.304Z,101350.84
2022-12-24T21:48:58.349Z,101349.56
2022-12-24T21:51:27.671Z,101350.81
2022-12-24T21:54:14.379Z,101349.84
2022-12-24T21:57:05.008Z,101355.13
2022-12-24T21:59:32.105Z,101357.84
2022-12-24T22:01:59.381Z,101369.31
2022-12-24T22:04:26.855Z,101378.91
2022-12-24T22:07:12.555Z,101373.69
2022-12-24T22:09:58.999Z,101377.72
2022-12-24T22:12:30.237Z,101383.28
2022-12-24T22:14:57.227Z,101384.72
2022-12-24T22:17:25.731Z,101373.78
2022-12-24T22:19:54.267Z,101381.69
2022-12-24T22:22:22.111Z,101384.09
2022-12-24T22:24:49.245Z,101378.81
2022-12-24T22:27:17.354Z,101387.69
2022-12-24T22:29:44.568Z,101392.56
2022-12-24T22:32:11.419Z,101393.84
2022-12-24T22:34:38.451Z,101392.09
2022-12-24T22:37:05.476Z,101390.66
2022-12-24T22:39:32.583Z,101385.53
2022-12-24T22:41:59.535Z,101384.72
2022-12-24T22:44:28.774Z,101388.75
2022-12-24T22:46:55.934Z,101386.81
2022-12-24T22:49:22.798Z,101390.03
2022-12-24T22:51:49.646Z,101382.31
2022-12-24T22:54:17.615Z,101374.63
2022-12-24T22:56:45.907Z,101372.59
2022-12-24T22:59:14.042Z,101378.69
2022-12-24T23:01:45.108Z,101380.63
2022-12-24T23:04:13.478Z,101379.28
2022-12-24T23:06:41.694Z,101383.94
2022-12-24T23:09:10.897Z,101375.25
2022-12-24T23:11:38.685Z,101379.59
2022-12-24T23:14:24.266Z,101377.66
2022-12-24T23:16:51.251Z,101373.31
2022-12-24T23:19:18.093Z,101374.09
2022-12-24T23:21:45.926Z,101384.75
2022-12-24T23:24:13.206Z,101387.78
2022-12-24T23:26:40.409Z,101393.91
2022-12-24T23:29:07.487Z,101390.81
2022-12-24T23:31:38.055Z,101403.06
2022-12-24T23:34:05.113Z,101390.00
2022-12-24T23:36:32.034Z,101386.16
2022-12-24T23:38:59.046Z,101381.16
2022-12-24T23:41:26.195Z,101385.34
2022-12-24T23:43:53.184Z,101385.53
2022-12-24T23:46:21.357Z,101386.09
2022-12-24T23:48:49.013Z,101378.88
2022-12-24T23:51:23.787Z,101383.19
2022-12-24T23:53:54.971Z,101388.03
2022-12-24T23:56:24.059Z,101381.94
2022-12-24T23:58:51.116Z,101379.84
